createdAt,value
2016-10-26T00:00:20.368Z,1012.38
2016-10-26T00:01:08.578Z,1012.41
2016-10-26T00:01:30.300Z,1012.48
2016-10-26T00:01:52.015Z,1012.43
2016-10-26T00:02:13.732Z,1012.44
2016-10-26T00:02:35.469Z,1012.57
2016-10-26T00:02:57.189Z,1012.55
2016-10-26T00:03:18.906Z,1012.57
2016-10-26T00:03:40.623Z,1012.48
2016-10-26T00:04:02.341Z,1012.46
2016-10-26T00:04:24.068Z,1012.47
2016-10-26T00:04:45.789Z,1012.51
2016-10-26T00:05:07.500Z,1012.51
2016-10-26T00:05:29.217Z,1012.46
2016-10-26T00:05:50.930Z,1012.48
2016-10-26T00:06:12.642Z,1012.52
2016-10-26T00:06:34.362Z,1012.53
2016-10-26T00:06:56.077Z,1012.59
2016-10-26T00:07:17.794Z,1012.54
2016-10-26T00:07:39.526Z,1012.56
2016-10-26T00:08:01.243Z,1012.47
2016-10-26T00:08:22.964Z,1012.50
2016-10-26T00:08:44.682Z,1012.57
2016-10-26T00:09:06.407Z,1012.56
2016-10-26T00:09:28.124Z,1012.51
2016-10-26T00:09:49.839Z,1012.52
2016-10-26T00:10:11.548Z,1012.48
2016-10-26T00:10:33.264Z,1012.49
2016-10-26T00:10:54.986Z,1012.50
2016-10-26T00:11:16.706Z,1012.52
2016-10-26T00:11:38.500Z,1012.44
2016-10-26T00:12:00.220Z,1012.45
2016-10-26T00:12:21.950Z,1012.43
2016-10-26T00:12:43.668Z,1012.41
2016-10-26T00:13:05.396Z,1012.38
2016-10-26T00:13:27.124Z,1012.40
2016-10-26T00:13:48.838Z,1012.44
2016-10-26T00:14:10.555Z,1012.45
2016-10-26T00:14:32.276Z,1012.49
2016-10-26T00:14:53.995Z,1012.50
2016-10-26T00:15:15.714Z,1012.47
2016-10-26T00:15:37.442Z,1012.45
2016-10-26T00:15:59.234Z,1012.47
2016-10-26T00:16:20.963Z,1012.40
2016-10-26T00:16:42.682Z,1012.44
2016-10-26T00:17:04.402Z,1012.45
2016-10-26T00:17:26.118Z,1012.47
2016-10-26T00:17:47.831Z,1012.36
2016-10-26T00:18:09.552Z,1012.35
2016-10-26T00:18:31.267Z,1012.31
2016-10-26T00:18:52.980Z,1012.39
2016-10-26T00:19:19.493Z,1012.52
2016-10-26T00:19:41.208Z,1012.44
2016-10-26T00:20:02.937Z,1012.48
2016-10-26T00:20:24.658Z,1012.46
2016-10-26T00:20:46.375Z,1012.49
2016-10-26T00:21:08.225Z,1012.52
2016-10-26T00:21:29.946Z,1012.49
2016-10-26T00:21:51.663Z,1012.45
2016-10-26T00:22:13.382Z,1012.41
2016-10-26T00:22:35.102Z,1012.47
2016-10-26T00:22:56.827Z,1012.45
2016-10-26T00:23:18.541Z,1012.46
2016-10-26T00:23:40.263Z,1012.51
2016-10-26T00:24:01.988Z,1012.44
2016-10-26T00:24:23.717Z,1012.46
2016-10-26T00:24:45.457Z,1012.50
2016-10-26T00:25:07.177Z,1012.46
2016-10-26T00:25:28.898Z,1012.45
2016-10-26T00:25:50.619Z,1012.50
2016-10-26T00:26:12.429Z,1012.50
2016-10-26T00:26:34.149Z,1012.49
2016-10-26T00:26:55.870Z,1012.47
2016-10-26T00:27:17.583Z,1012.41
2016-10-26T00:27:39.298Z,1012.47
2016-10-26T00:28:01.023Z,1012.51
2016-10-26T00:28:22.741Z,1012.52
2016-10-26T00:28:44.458Z,1012.55
2016-10-26T00:29:06.185Z,1012.55
2016-10-26T00:29:27.906Z,1012.49
2016-10-26T00:29:49.632Z,1012.48
2016-10-26T00:30:11.350Z,1012.54
2016-10-26T00:30:33.067Z,1012.50
2016-10-26T00:30:54.786Z,1012.50
2016-10-26T00:31:16.500Z,1012.59
2016-10-26T00:31:38.226Z,1012.59
2016-10-26T00:31:59.939Z,1012.66
2016-10-26T00:32:21.681Z,1012.60
2016-10-26T00:32:43.399Z,1012.60
2016-10-26T00:33:05.120Z,1012.64
2016-10-26T00:33:26.839Z,1012.66
2016-10-26T00:33:48.558Z,1012.64
2016-10-26T00:34:10.278Z,1012.69
2016-10-26T00:34:31.993Z,1012.71
2016-10-26T00:34:53.706Z,1012.64
2016-10-26T00:35:15.423Z,1012.69
2016-10-26T00:35:37.164Z,1012.59
2016-10-26T00:35:58.883Z,1012.69
2016-10-26T00:36:20.604Z,1012.64
2016-10-26T00:36:42.317Z,1012.64
2016-10-26T00:37:04.033Z,1012.63
2016-10-26T00:37:25.755Z,1012.63
2016-10-26T00:37:47.478Z,1012.61
2016-10-26T00:38:09.187Z,1012.56
2016-10-26T00:38:30.902Z,1012.59
2016-10-26T00:38:52.618Z,1012.59
2016-10-26T00:39:14.332Z,1012.68
2016-10-26T00:39:36.051Z,1012.75
2016-10-26T00:39:57.772Z,1012.64
2016-10-26T00:40:19.502Z,1012.73
2016-10-26T00:40:41.225Z,1012.76
2016-10-26T00:41:03.005Z,1012.68
2016-10-26T00:41:24.721Z,1012.73
2016-10-26T00:41:46.450Z,1012.68
2016-10-26T00:42:08.165Z,1012.73
2016-10-26T00:42:29.878Z,1012.73
2016-10-26T00:42:51.600Z,1012.71
2016-10-26T00:43:13.313Z,1012.62
2016-10-26T00:43:35.030Z,1012.62
2016-10-26T00:43:56.747Z,1012.52
2016-10-26T00:44:18.494Z,1012.67
2016-10-26T00:44:40.203Z,1012.77
2016-10-26T00:45:01.929Z,1012.80
2016-10-26T00:45:23.642Z,1012.73
2016-10-26T00:45:45.363Z,1012.68
2016-10-26T00:46:07.077Z,1012.66
2016-10-26T00:46:28.797Z,1012.65
2016-10-26T00:46:50.516Z,1012.67
2016-10-26T00:47:12.250Z,1012.66
2016-10-26T00:47:34.015Z,1012.66
2016-10-26T00:47:55.707Z,1012.61
2016-10-26T00:48:17.424Z,1012.67
2016-10-26T00:48:39.138Z,1012.70
2016-10-26T00:49:27.350Z,1012.79
2016-10-26T00:49:49.062Z,1012.73
2016-10-26T00:50:10.785Z,1012.72
2016-10-26T00:50:32.500Z,1012.66
2016-10-26T00:50:54.217Z,1012.70
2016-10-26T00:51:15.947Z,1012.64
2016-10-26T00:51:37.669Z,1012.66
2016-10-26T00:51:59.383Z,1012.70
2016-10-26T00:52:21.099Z,1012.66
2016-10-26T00:52:42.832Z,1012.72
2016-10-26T00:53:04.545Z,1012.72
2016-10-26T00:53:26.264Z,1012.66
2016-10-26T00:53:47.977Z,1012.66
2016-10-26T00:54:09.693Z,1012.63
2016-10-26T00:54:31.414Z,1012.65
2016-10-26T00:54:53.135Z,1012.63
2016-10-26T00:55:14.861Z,1012.61
2016-10-26T00:55:36.590Z,1012.61
2016-10-26T00:55:58.312Z,1012.61
2016-10-26T00:56:20.039Z,1012.72
2016-10-26T00:56:41.752Z,1012.68
2016-10-26T00:57:03.471Z,1012.72
2016-10-26T00:57:25.210Z,1012.72
2016-10-26T00:57:46.932Z,1012.67
2016-10-26T00:58:08.657Z,1012.62
2016-10-26T00:58:30.391Z,1012.67
2016-10-26T00:58:52.106Z,1012.64
2016-10-26T00:59:13.821Z,1012.65
2016-10-26T01:00:02.041Z,1012.68
2016-10-26T01:00:23.751Z,1012.61
2016-10-26T01:00:45.464Z,1012.62
2016-10-26T01:01:07.189Z,1012.71
2016-10-26T01:01:28.919Z,1012.72
2016-10-26T01:01:50.686Z,1012.64
2016-10-26T01:02:12.407Z,1012.67
2016-10-26T01:02:34.121Z,1012.71
2016-10-26T01:02:55.838Z,1012.63
2016-10-26T01:03:17.563Z,1012.66
2016-10-26T01:03:39.280Z,1012.68
2016-10-26T01:04:01.003Z,1012.64
2016-10-26T01:04:22.730Z,1012.67
2016-10-26T01:04:44.444Z,1012.63
2016-10-26T01:05:06.165Z,1012.62
2016-10-26T01:05:27.880Z,1012.67
2016-10-26T01:05:54.371Z,1012.66
2016-10-26T01:06:16.088Z,1012.65
2016-10-26T01:06:37.811Z,1012.64
2016-10-26T01:06:59.538Z,1012.71
2016-10-26T01:07:21.258Z,1012.62
2016-10-26T01:07:42.993Z,1012.62
2016-10-26T01:08:04.717Z,1012.62
2016-10-26T01:08:26.437Z,1012.69
2016-10-26T01:08:48.152Z,1012.64
2016-10-26T01:09:09.883Z,1012.73
2016-10-26T01:09:31.606Z,1012.66
2016-10-26T01:09:53.321Z,1012.64
2016-10-26T01:10:15.039Z,1012.66
2016-10-26T01:10:41.546Z,1012.58
2016-10-26T01:11:03.250Z,1012.66
2016-10-26T01:11:24.964Z,1012.59
2016-10-26T01:11:46.677Z,1012.62
2016-10-26T01:12:08.410Z,1012.59
2016-10-26T01:12:30.123Z,1012.60
2016-10-26T01:12:51.867Z,1012.61
2016-10-26T01:13:13.585Z,1012.61
2016-10-26T01:13:35.311Z,1012.61
2016-10-26T01:13:57.030Z,1012.63
2016-10-26T01:14:18.753Z,1012.73
2016-10-26T01:14:40.472Z,1012.57
2016-10-26T01:15:02.196Z,1012.67
2016-10-26T01:15:23.913Z,1012.71
2016-10-26T01:15:45.630Z,1012.67
2016-10-26T01:16:07.349Z,1012.73
2016-10-26T01:16:29.070Z,1012.66
2016-10-26T01:16:50.789Z,1012.63
2016-10-26T01:17:12.515Z,1012.55
2016-10-26T01:17:34.252Z,1012.49
2016-10-26T01:17:55.975Z,1012.53
2016-10-26T01:18:17.696Z,1012.50
2016-10-26T01:18:39.461Z,1012.55
2016-10-26T01:19:01.173Z,1012.62
2016-10-26T01:19:22.891Z,1012.58
2016-10-26T01:19:44.617Z,1012.62
2016-10-26T01:20:06.332Z,1012.54
2016-10-26T01:20:28.051Z,1012.54
2016-10-26T01:20:49.771Z,1012.68
2016-10-26T01:21:11.489Z,1012.57
2016-10-26T01:21:33.210Z,1012.58
2016-10-26T01:21:54.924Z,1012.64
2016-10-26T01:22:16.639Z,1012.57
2016-10-26T01:22:43.150Z,1012.48
2016-10-26T01:23:04.881Z,1012.60
2016-10-26T01:23:26.590Z,1012.55
2016-10-26T01:23:48.304Z,1012.52
2016-10-26T01:24:10.030Z,1012.49
2016-10-26T01:24:31.749Z,1012.59
2016-10-26T01:24:53.460Z,1012.63
2016-10-26T01:25:15.177Z,1012.57
2016-10-26T01:25:36.986Z,1012.42
2016-10-26T01:25:58.697Z,1012.54
2016-10-26T01:26:20.434Z,1012.53
2016-10-26T01:26:42.151Z,1012.59
2016-10-26T01:27:08.666Z,1012.57
2016-10-26T01:27:30.391Z,1012.49
2016-10-26T01:27:52.120Z,1012.50
2016-10-26T01:28:13.841Z,1012.60
2016-10-26T01:28:35.574Z,1012.51
2016-10-26T01:28:57.291Z,1012.53
2016-10-26T01:29:19.022Z,1012.48
2016-10-26T01:29:40.740Z,1012.47
2016-10-26T01:30:02.462Z,1012.48
2016-10-26T01:30:24.175Z,1012.53
2016-10-26T01:30:45.891Z,1012.55
2016-10-26T01:31:07.614Z,1012.43
2016-10-26T01:31:29.347Z,1012.50
2016-10-26T01:31:51.078Z,1012.46
2016-10-26T01:32:12.808Z,1012.39
2016-10-26T01:32:34.525Z,1012.37
2016-10-26T01:32:56.242Z,1012.37
2016-10-26T01:33:17.964Z,1012.41
2016-10-26T01:33:39.683Z,1012.43
2016-10-26T01:34:01.422Z,1012.41
2016-10-26T01:34:23.141Z,1012.48
2016-10-26T01:34:44.861Z,1012.49
2016-10-26T01:35:06.581Z,1012.46
2016-10-26T01:35:28.304Z,1012.47
2016-10-26T01:35:50.030Z,1012.48
2016-10-26T01:36:11.747Z,1012.44
2016-10-26T01:36:33.467Z,1012.43
2016-10-26T01:36:55.199Z,1012.39
2016-10-26T01:37:16.920Z,1012.44
2016-10-26T01:37:38.719Z,1012.42
2016-10-26T01:38:00.448Z,1012.48
2016-10-26T01:38:22.166Z,1012.39
2016-10-26T01:38:43.885Z,1012.31
2016-10-26T01:39:05.614Z,1012.36
2016-10-26T01:39:27.334Z,1012.43
2016-10-26T01:39:49.054Z,1012.41
2016-10-26T01:40:10.782Z,1012.40
2016-10-26T01:40:32.492Z,1012.35
2016-10-26T01:40:54.214Z,1012.32
2016-10-26T01:41:15.936Z,1012.34
2016-10-26T01:41:37.670Z,1012.43
2016-10-26T01:41:59.394Z,1012.45
2016-10-26T01:42:21.106Z,1012.47
2016-10-26T01:42:42.825Z,1012.42
2016-10-26T01:43:04.559Z,1012.44
2016-10-26T01:43:26.302Z,1012.41
2016-10-26T01:43:48.025Z,1012.31
2016-10-26T01:44:09.745Z,1012.44
2016-10-26T01:44:31.462Z,1012.47
2016-10-26T01:44:53.180Z,1012.49
2016-10-26T01:45:14.913Z,1012.46
2016-10-26T01:45:36.632Z,1012.39
2016-10-26T01:45:58.362Z,1012.40
2016-10-26T01:46:20.081Z,1012.47
2016-10-26T01:46:41.799Z,1012.30
2016-10-26T01:47:03.515Z,1012.29
2016-10-26T01:47:25.232Z,1012.37
2016-10-26T01:47:46.948Z,1012.44
2016-10-26T01:48:08.663Z,1012.40
2016-10-26T01:48:30.378Z,1012.53
2016-10-26T01:48:52.099Z,1012.47
2016-10-26T01:49:13.818Z,1012.45
2016-10-26T01:49:35.546Z,1012.41
2016-10-26T01:49:57.265Z,1012.36
2016-10-26T01:50:18.984Z,1012.42
2016-10-26T01:50:40.704Z,1012.42
2016-10-26T01:51:02.417Z,1012.35
2016-10-26T01:51:24.142Z,1012.35
2016-10-26T01:51:45.856Z,1012.31
2016-10-26T01:52:07.580Z,1012.36
2016-10-26T01:52:29.312Z,1012.38
2016-10-26T01:52:51.030Z,1012.43
2016-10-26T01:53:12.747Z,1012.36
2016-10-26T01:53:34.469Z,1012.33
2016-10-26T01:53:56.188Z,1012.31
2016-10-26T01:54:17.904Z,1012.42
2016-10-26T01:54:39.643Z,1012.40
2016-10-26T01:55:01.363Z,1012.42
2016-10-26T01:55:23.080Z,1012.44
2016-10-26T01:55:44.794Z,1012.43
2016-10-26T01:56:09.515Z,1012.36
2016-10-26T01:56:57.750Z,1012.42
2016-10-26T01:57:19.469Z,1012.43
2016-10-26T01:57:41.184Z,1012.39
2016-10-26T01:58:02.908Z,1012.37
2016-10-26T01:58:24.625Z,1012.38
2016-10-26T01:58:46.340Z,1012.40
2016-10-26T01:59:08.061Z,1012.37
2016-10-26T01:59:29.816Z,1012.38
2016-10-26T01:59:51.533Z,1012.33
2016-10-26T02:00:13.346Z,1012.34
2016-10-26T02:00:35.064Z,1012.35
2016-10-26T02:00:56.778Z,1012.36
2016-10-26T02:01:18.515Z,1012.43
2016-10-26T02:01:40.222Z,1012.29
2016-10-26T02:02:06.827Z,1012.36
2016-10-26T02:02:28.549Z,1012.52
2016-10-26T02:02:50.263Z,1012.41
2016-10-26T02:03:11.977Z,1012.28
2016-10-26T02:03:33.702Z,1012.37
2016-10-26T02:03:55.421Z,1012.33
2016-10-26T02:04:17.151Z,1012.35
2016-10-26T02:04:38.871Z,1012.45
2016-10-26T02:05:00.589Z,1012.49
2016-10-26T02:05:22.302Z,1012.38
2016-10-26T02:05:44.021Z,1012.38
2016-10-26T02:06:05.734Z,1012.36
2016-10-26T02:06:27.464Z,1012.31
2016-10-26T02:06:49.212Z,1012.35
2016-10-26T02:07:11.140Z,1012.46
2016-10-26T02:07:32.855Z,1012.52
2016-10-26T02:07:54.573Z,1012.39
2016-10-26T02:08:16.288Z,1012.31
2016-10-26T02:08:37.997Z,1012.45
2016-10-26T02:08:59.717Z,1012.41
2016-10-26T02:09:21.432Z,1012.34
2016-10-26T02:09:43.150Z,1012.38
2016-10-26T02:10:04.883Z,1012.39
2016-10-26T02:10:26.610Z,1012.38
2016-10-26T02:10:48.332Z,1012.43
2016-10-26T02:11:10.071Z,1012.33
2016-10-26T02:11:31.789Z,1012.30
2016-10-26T02:11:53.506Z,1012.47
2016-10-26T02:12:15.230Z,1012.52
2016-10-26T02:12:36.981Z,1012.41
2016-10-26T02:12:58.695Z,1012.39
2016-10-26T02:13:20.412Z,1012.35
2016-10-26T02:13:42.130Z,1012.36
2016-10-26T02:14:03.846Z,1012.39
2016-10-26T02:14:25.560Z,1012.36
2016-10-26T02:14:47.284Z,1012.40
2016-10-26T02:15:09.013Z,1012.36
2016-10-26T02:15:30.724Z,1012.44
2016-10-26T02:15:52.453Z,1012.48
2016-10-26T02:16:14.171Z,1012.50
2016-10-26T02:16:35.893Z,1012.43
2016-10-26T02:16:57.599Z,1012.47
2016-10-26T02:17:19.322Z,1012.44
2016-10-26T02:17:41.033Z,1012.47
2016-10-26T02:18:02.754Z,1012.46
2016-10-26T02:18:24.479Z,1012.42
2016-10-26T02:18:46.196Z,1012.47
2016-10-26T02:19:07.915Z,1012.46
2016-10-26T02:19:29.755Z,1012.40
2016-10-26T02:19:51.470Z,1012.45
2016-10-26T02:20:13.202Z,1012.39
2016-10-26T02:20:34.919Z,1012.39
2016-10-26T02:20:56.638Z,1012.42
2016-10-26T02:21:18.354Z,1012.42
2016-10-26T02:21:40.075Z,1012.44
2016-10-26T02:22:01.792Z,1012.46
2016-10-26T02:22:23.516Z,1012.42
2016-10-26T02:22:45.234Z,1012.45
2016-10-26T02:23:06.963Z,1012.38
2016-10-26T02:23:28.676Z,1012.38
2016-10-26T02:23:50.395Z,1012.46
2016-10-26T02:24:12.129Z,1012.41
2016-10-26T02:24:33.857Z,1012.37
2016-10-26T02:24:55.571Z,1012.49
2016-10-26T02:25:17.290Z,1012.43
2016-10-26T02:25:39.011Z,1012.53
2016-10-26T02:26:00.732Z,1012.55
2016-10-26T02:26:22.460Z,1012.56
2016-10-26T02:26:44.171Z,1012.46
2016-10-26T02:27:05.891Z,1012.55
2016-10-26T02:27:27.625Z,1012.45
2016-10-26T02:27:49.344Z,1012.40
2016-10-26T02:28:11.063Z,1012.46
2016-10-26T02:28:32.784Z,1012.52
2016-10-26T02:28:54.504Z,1012.50
2016-10-26T02:29:16.221Z,1012.44
2016-10-26T02:29:37.934Z,1012.38
2016-10-26T02:29:59.648Z,1012.45
2016-10-26T02:30:21.361Z,1012.51
2016-10-26T02:30:43.080Z,1012.56
2016-10-26T02:31:04.792Z,1012.56
2016-10-26T02:31:26.511Z,1012.58
2016-10-26T02:31:48.232Z,1012.60
2016-10-26T02:32:09.954Z,1012.61
2016-10-26T02:32:31.677Z,1012.59
2016-10-26T02:32:53.394Z,1012.47
2016-10-26T02:33:17.910Z,1012.58
2016-10-26T02:33:39.628Z,1012.58
2016-10-26T02:34:01.344Z,1012.52
2016-10-26T02:34:23.063Z,1012.49
2016-10-26T02:34:44.794Z,1012.57
2016-10-26T02:35:06.517Z,1012.54
2016-10-26T02:35:28.232Z,1012.48
2016-10-26T02:35:49.950Z,1012.33
2016-10-26T02:36:11.683Z,1012.44
2016-10-26T02:36:33.398Z,1012.46
2016-10-26T02:36:55.120Z,1012.43
2016-10-26T02:37:16.837Z,1012.50
2016-10-26T02:37:38.579Z,1012.57
2016-10-26T02:38:00.295Z,1012.56
2016-10-26T02:38:22.010Z,1012.50
2016-10-26T02:38:43.725Z,1012.48
2016-10-26T02:39:05.433Z,1012.49
2016-10-26T02:39:27.154Z,1012.42
2016-10-26T02:39:48.868Z,1012.55
2016-10-26T02:40:10.581Z,1012.48
2016-10-26T02:40:32.297Z,1012.53
2016-10-26T02:40:54.009Z,1012.55
2016-10-26T02:41:15.728Z,1012.59
2016-10-26T02:41:37.448Z,1012.51
2016-10-26T02:41:59.188Z,1012.48
2016-10-26T02:42:20.898Z,1012.50
2016-10-26T02:42:42.616Z,1012.48
2016-10-26T02:43:04.335Z,1012.49
2016-10-26T02:43:26.051Z,1012.47
2016-10-26T02:43:47.764Z,1012.45
2016-10-26T02:44:09.482Z,1012.53
2016-10-26T02:44:31.201Z,1012.53
2016-10-26T02:44:52.922Z,1012.58
2016-10-26T02:45:14.640Z,1012.51
2016-10-26T02:45:36.360Z,1012.52
2016-10-26T02:45:58.069Z,1012.55
2016-10-26T02:46:19.805Z,1012.61
2016-10-26T02:46:41.518Z,1012.61
2016-10-26T02:47:08.019Z,1012.61
2016-10-26T02:47:29.737Z,1012.57
2016-10-26T02:47:51.452Z,1012.62
2016-10-26T02:48:13.177Z,1012.57
2016-10-26T02:48:34.883Z,1012.55
2016-10-26T02:48:56.599Z,1012.55
2016-10-26T02:49:18.313Z,1012.56
2016-10-26T02:49:40.026Z,1012.60
2016-10-26T02:50:01.811Z,1012.57
2016-10-26T02:50:23.527Z,1012.57
2016-10-26T02:50:45.247Z,1012.54
2016-10-26T02:51:06.970Z,1012.68
2016-10-26T02:51:28.681Z,1012.65
2016-10-26T02:51:50.434Z,1012.63
2016-10-26T02:52:12.164Z,1012.57
2016-10-26T02:52:33.880Z,1012.50
2016-10-26T02:52:55.599Z,1012.47
2016-10-26T02:53:17.315Z,1012.44
2016-10-26T02:53:39.027Z,1012.49
2016-10-26T02:54:00.768Z,1012.54
2016-10-26T02:54:22.488Z,1012.51
2016-10-26T02:54:44.206Z,1012.54
2016-10-26T02:55:05.928Z,1012.56
2016-10-26T02:55:27.646Z,1012.58
2016-10-26T02:55:49.365Z,1012.63
2016-10-26T02:56:11.189Z,1012.57
2016-10-26T02:56:32.903Z,1012.56
2016-10-26T02:56:54.622Z,1012.60
2016-10-26T02:57:16.333Z,1012.65
2016-10-26T02:57:38.052Z,1012.61
2016-10-26T02:57:59.774Z,1012.62
2016-10-26T02:58:21.502Z,1012.54
2016-10-26T02:58:43.221Z,1012.68
2016-10-26T02:59:04.945Z,1012.68
2016-10-26T02:59:26.662Z,1012.56
2016-10-26T02:59:48.385Z,1012.61
2016-10-26T03:00:10.100Z,1012.57
2016-10-26T03:00:31.815Z,1012.57
2016-10-26T03:00:53.527Z,1012.57
2016-10-26T03:01:15.246Z,1012.61
2016-10-26T03:01:36.965Z,1012.54
2016-10-26T03:01:58.694Z,1012.65
2016-10-26T03:02:20.403Z,1012.55
2016-10-26T03:02:42.119Z,1012.58
2016-10-26T03:03:03.835Z,1012.56
2016-10-26T03:03:25.553Z,1012.51
2016-10-26T03:03:47.271Z,1012.49
2016-10-26T03:04:08.985Z,1012.53
2016-10-26T03:04:30.700Z,1012.49
2016-10-26T03:04:52.419Z,1012.60
2016-10-26T03:05:14.138Z,1012.65
2016-10-26T03:05:35.855Z,1012.62
2016-10-26T03:05:57.572Z,1012.62
2016-10-26T03:06:19.294Z,1012.59
2016-10-26T03:06:41.043Z,1012.58
2016-10-26T03:07:02.762Z,1012.61
2016-10-26T03:07:24.479Z,1012.61
2016-10-26T03:07:46.197Z,1012.60
2016-10-26T03:08:07.912Z,1012.64
2016-10-26T03:08:29.632Z,1012.63
2016-10-26T03:08:51.364Z,1012.61
2016-10-26T03:09:13.099Z,1012.58
2016-10-26T03:09:34.816Z,1012.52
2016-10-26T03:09:56.531Z,1012.65
2016-10-26T03:10:18.246Z,1012.62
2016-10-26T03:10:39.962Z,1012.64
2016-10-26T03:11:01.676Z,1012.60
2016-10-26T03:11:23.405Z,1012.55
2016-10-26T03:11:45.138Z,1012.53
2016-10-26T03:12:06.852Z,1012.59
2016-10-26T03:12:28.575Z,1012.66
2016-10-26T03:12:50.295Z,1012.59
2016-10-26T03:13:12.015Z,1012.68
2016-10-26T03:13:33.745Z,1012.62
2016-10-26T03:13:55.457Z,1012.58
2016-10-26T03:14:17.174Z,1012.58
2016-10-26T03:14:38.884Z,1012.61
2016-10-26T03:15:00.620Z,1012.57
2016-10-26T03:15:22.340Z,1012.56
2016-10-26T03:15:44.054Z,1012.53
2016-10-26T03:16:05.779Z,1012.58
2016-10-26T03:16:27.494Z,1012.61
2016-10-26T03:16:49.212Z,1012.74
2016-10-26T03:17:10.951Z,1012.68
2016-10-26T03:17:32.693Z,1012.67
2016-10-26T03:17:54.405Z,1012.68
2016-10-26T03:18:16.124Z,1012.66
2016-10-26T03:18:37.851Z,1012.63
2016-10-26T03:18:59.566Z,1012.59
2016-10-26T03:19:21.284Z,1012.57
2016-10-26T03:19:43.004Z,1012.56
2016-10-26T03:20:04.849Z,1012.59
2016-10-26T03:20:26.567Z,1012.47
2016-10-26T03:20:48.288Z,1012.52
2016-10-26T03:21:10.019Z,1012.45
2016-10-26T03:21:31.756Z,1012.48
2016-10-26T03:21:53.473Z,1012.56
2016-10-26T03:22:15.183Z,1012.60
2016-10-26T03:22:36.902Z,1012.62
2016-10-26T03:22:58.624Z,1012.48
2016-10-26T03:23:20.348Z,1012.48
2016-10-26T03:23:42.091Z,1012.49
2016-10-26T03:24:03.801Z,1012.60
2016-10-26T03:24:25.524Z,1012.55
2016-10-26T03:24:47.234Z,1012.53
2016-10-26T03:25:08.957Z,1012.57
2016-10-26T03:25:30.679Z,1012.54
2016-10-26T03:25:52.397Z,1012.59
2016-10-26T03:26:14.117Z,1012.61
2016-10-26T03:26:35.842Z,1012.63
2016-10-26T03:26:57.562Z,1012.60
2016-10-26T03:27:19.275Z,1012.51
2016-10-26T03:27:40.993Z,1012.63
2016-10-26T03:28:02.709Z,1012.59
2016-10-26T03:28:24.485Z,1012.58
2016-10-26T03:28:46.286Z,1012.58
2016-10-26T03:29:08.005Z,1012.62
2016-10-26T03:29:29.816Z,1012.60
2016-10-26T03:29:51.538Z,1012.66
2016-10-26T03:30:13.253Z,1012.63
2016-10-26T03:30:34.971Z,1012.59
2016-10-26T03:30:56.686Z,1012.62
2016-10-26T03:31:18.400Z,1012.61
2016-10-26T03:31:40.113Z,1012.59
2016-10-26T03:32:01.832Z,1012.69
2016-10-26T03:32:23.625Z,1012.53
2016-10-26T03:32:45.339Z,1012.69
2016-10-26T03:33:07.060Z,1012.65
2016-10-26T03:33:28.780Z,1012.64
2016-10-26T03:33:50.496Z,1012.57
2016-10-26T03:34:16.991Z,1012.56
2016-10-26T03:34:38.764Z,1012.67
2016-10-26T03:35:00.494Z,1012.66
2016-10-26T03:35:22.220Z,1012.65
2016-10-26T03:35:43.931Z,1012.63
2016-10-26T03:36:05.646Z,1012.65
2016-10-26T03:36:27.364Z,1012.64
2016-10-26T03:36:49.094Z,1012.65
2016-10-26T03:37:10.890Z,1012.65
2016-10-26T03:37:32.600Z,1012.65
2016-10-26T03:37:54.327Z,1012.70
2016-10-26T03:38:16.044Z,1012.62
2016-10-26T03:38:37.775Z,1012.70
2016-10-26T03:38:59.607Z,1012.79
2016-10-26T03:39:21.322Z,1012.81
2016-10-26T03:39:43.037Z,1012.77
2016-10-26T03:40:04.751Z,1012.75
2016-10-26T03:40:26.474Z,1012.78
2016-10-26T03:40:48.200Z,1012.67
2016-10-26T03:41:09.918Z,1012.77
2016-10-26T03:41:31.637Z,1012.74
2016-10-26T03:41:53.364Z,1012.72
2016-10-26T03:42:15.094Z,1012.81
2016-10-26T03:42:36.814Z,1012.83
2016-10-26T03:42:58.527Z,1012.76
2016-10-26T03:43:20.242Z,1012.77
2016-10-26T03:43:41.965Z,1012.78
2016-10-26T03:44:03.695Z,1012.69
2016-10-26T03:44:25.413Z,1012.73
2016-10-26T03:44:47.135Z,1012.78
2016-10-26T03:45:08.863Z,1012.76
2016-10-26T03:45:30.586Z,1012.74
2016-10-26T03:45:52.301Z,1012.71
2016-10-26T03:46:14.020Z,1012.74
2016-10-26T03:46:35.740Z,1012.77
2016-10-26T03:46:57.458Z,1012.83
2016-10-26T03:47:19.187Z,1012.78
2016-10-26T03:47:40.910Z,1012.82
2016-10-26T03:48:02.734Z,1012.78
2016-10-26T03:48:24.453Z,1012.68
2016-10-26T03:48:46.163Z,1012.69
2016-10-26T03:49:07.882Z,1012.72
2016-10-26T03:49:29.603Z,1012.75
2016-10-26T03:49:51.335Z,1012.80
2016-10-26T03:50:13.055Z,1012.72
2016-10-26T03:50:34.776Z,1012.79
2016-10-26T03:50:56.495Z,1012.85
2016-10-26T03:51:18.213Z,1012.79
2016-10-26T03:51:39.931Z,1012.79
2016-10-26T03:52:01.648Z,1012.82
2016-10-26T03:52:23.369Z,1012.76
2016-10-26T03:52:45.109Z,1012.80
2016-10-26T03:53:06.829Z,1012.83
2016-10-26T03:53:28.548Z,1012.84
2016-10-26T03:53:50.270Z,1012.77
2016-10-26T03:54:11.987Z,1012.80
2016-10-26T03:54:33.700Z,1012.80
2016-10-26T03:54:55.426Z,1012.84
2016-10-26T03:55:17.151Z,1012.75
2016-10-26T03:55:38.870Z,1012.89
2016-10-26T03:56:00.585Z,1012.85
2016-10-26T03:56:22.306Z,1012.88
2016-10-26T03:56:44.031Z,1012.73
2016-10-26T03:57:05.759Z,1012.80
2016-10-26T03:57:27.469Z,1012.87
2016-10-26T03:57:49.184Z,1012.83
2016-10-26T03:58:10.898Z,1012.84
2016-10-26T03:58:32.619Z,1012.83
2016-10-26T03:58:54.368Z,1012.80
2016-10-26T03:59:16.086Z,1012.86
2016-10-26T03:59:37.831Z,1012.90
2016-10-26T03:59:59.556Z,1012.89
2016-10-26T04:00:21.298Z,1012.95
2016-10-26T04:00:43.028Z,1012.99
2016-10-26T04:01:04.758Z,1012.90
2016-10-26T04:01:26.473Z,1012.86
2016-10-26T04:01:48.187Z,1012.82
2016-10-26T04:02:09.909Z,1012.72
2016-10-26T04:02:31.627Z,1012.80
2016-10-26T04:02:53.341Z,1012.87
2016-10-26T04:03:15.081Z,1012.91
2016-10-26T04:03:36.789Z,1012.80
2016-10-26T04:03:58.581Z,1012.92
2016-10-26T04:04:20.313Z,1013.01
2016-10-26T04:04:42.052Z,1012.91
2016-10-26T04:05:03.779Z,1012.85
2016-10-26T04:05:26.495Z,1012.79
2016-10-26T04:05:48.217Z,1012.81
2016-10-26T04:06:09.932Z,1012.83
2016-10-26T04:06:31.650Z,1012.87
2016-10-26T04:06:53.372Z,1012.97
2016-10-26T04:07:15.109Z,1012.97
2016-10-26T04:07:36.837Z,1012.86
2016-10-26T04:07:58.546Z,1012.92
2016-10-26T04:08:20.274Z,1012.92
2016-10-26T04:08:42.066Z,1012.99
2016-10-26T04:09:03.791Z,1012.94
2016-10-26T04:09:25.512Z,1012.84
2016-10-26T04:09:47.222Z,1012.90
2016-10-26T04:10:08.940Z,1013.00
2016-10-26T04:10:30.661Z,1012.93
2016-10-26T04:10:52.381Z,1012.90
2016-10-26T04:11:14.113Z,1012.91
2016-10-26T04:11:35.844Z,1012.96
2016-10-26T04:11:57.539Z,1013.08
2016-10-26T04:12:19.261Z,1013.05
2016-10-26T04:12:40.980Z,1012.98
2016-10-26T04:13:02.707Z,1012.97
2016-10-26T04:13:24.426Z,1013.14
2016-10-26T04:13:46.145Z,1013.00
2016-10-26T04:14:07.936Z,1012.88
2016-10-26T04:14:29.649Z,1012.95
2016-10-26T04:14:52.376Z,1012.98
2016-10-26T04:15:14.090Z,1012.99
2016-10-26T04:15:35.835Z,1013.07
2016-10-26T04:15:57.540Z,1012.95
2016-10-26T04:16:19.329Z,1012.98
2016-10-26T04:16:41.048Z,1013.03
2016-10-26T04:17:02.764Z,1013.04
2016-10-26T04:17:24.475Z,1012.98
2016-10-26T04:17:46.193Z,1012.96
2016-10-26T04:18:07.914Z,1012.86
2016-10-26T04:18:29.635Z,1012.95
2016-10-26T04:18:51.355Z,1012.90
2016-10-26T04:19:13.078Z,1013.01
2016-10-26T04:19:34.793Z,1012.96
2016-10-26T04:19:56.512Z,1012.97
2016-10-26T04:20:18.234Z,1013.10
2016-10-26T04:20:40.031Z,1012.94
2016-10-26T04:21:01.745Z,1013.02
2016-10-26T04:21:23.465Z,1013.03
2016-10-26T04:21:45.182Z,1013.00
2016-10-26T04:22:06.897Z,1012.92
2016-10-26T04:22:28.638Z,1012.94
2016-10-26T04:22:50.347Z,1012.99
2016-10-26T04:23:12.080Z,1013.05
2016-10-26T04:23:33.797Z,1012.99
2016-10-26T04:23:55.518Z,1012.97
2016-10-26T04:24:17.243Z,1012.97
2016-10-26T04:24:38.973Z,1012.93
2016-10-26T04:25:00.706Z,1012.99
2016-10-26T04:25:22.425Z,1012.97